Time;durP1;ratioP1;P1;durP2;ratioP2;P2;SDS_P1;SDS_P2;PMS_P1;PMS_P2;Temp;Humidity;BMP_temperature;BMP_pressure;BME280_temperature;BME280_humidity;BME280_pressure;Samples;Min_cycle;Max_cycle;Signal;HPM_P1;HPM_P2
2022/10/06 00:00:54;;;;;;;9.70;2.08;;;13.50;99.90;;;;;;4988685;28;20047;-59
2022/10/06 00:03:24;;;;;;;10.38;1.92;;;13.40;99.90;;;;;;4989797;28;20547;-60
2022/10/06 00:05:50;;;;;;;11.32;1.90;;;13.40;99.90;;;;;;4980433;28;20052;-59
2022/10/06 00:08:17;;;;;;;7.82;2.40;;;13.40;99.90;;;;;;4991244;28;20041;-58
2022/10/06 00:10:43;;;;;;;10.32;2.33;;;13.40;99.90;;;;;;4978465;28;20046;-59
2022/10/06 00:13:09;;;;;;;15.98;2.28;;;13.50;99.90;;;;;;4996434;28;20042;-59
2022/10/06 00:15:35;;;;;;;10.35;1.88;;;13.50;99.90;;;;;;4970440;28;20104;-59
2022/10/06 00:18:02;;;;;;;11.68;2.15;;;13.40;99.90;;;;;;4980721;28;20500;-60
2022/10/06 00:20:28;;;;;;;7.55;1.95;;;13.40;99.90;;;;;;4982951;28;20084;-59
2022/10/06 00:22:57;;;;;;;16.00;2.60;;;13.40;99.90;;;;;;4978397;28;20060;-60
2022/10/06 00:25:24;;;;;;;9.70;2.05;;;13.40;99.90;;;;;;4973402;28;20107;-60
2022/10/06 00:27:51;;;;;;;10.85;2.35;;;13.40;99.90;;;;;;4964000;28;20050;-59
2022/10/06 00:30:27;;;;;;;9.50;1.90;;;13.40;99.90;;;;;;4988432;28;20124;-59
2022/10/06 00:32:56;;;;;;;14.48;2.25;;;13.40;99.90;;;;;;4992180;28;20088;-60
2022/10/06 00:35:24;;;;;;;14.73;2.55;;;13.30;99.90;;;;;;4996709;28;20038;-59
2022/10/06 00:37:50;;;;;;;13.20;2.40;;;13.30;99.90;;;;;;4995995;28;20037;-59
2022/10/06 00:40:16;;;;;;;10.13;2.22;;;13.30;99.90;;;;;;4997411;28;20034;-59
2022/10/06 00:43:04;;;;;;;11.02;2.03;;;13.30;99.90;;;;;;5000808;28;20476;-59
2022/10/06 00:45:37;;;;;;;14.13;2.00;;;13.30;99.90;;;;;;5001753;28;20058;-57
2022/10/06 00:48:18;;;;;;;13.18;2.95;;;13.30;99.90;;;;;;4992511;28;20549;-59
2022/10/06 00:50:45;;;;;;;9.68;2.25;;;13.30;99.90;;;;;;4982559;28;20034;-59
2022/10/06 00:53:12;;;;;;;9.23;2.38;;;13.30;99.90;;;;;;4978282;28;20069;-60
2022/10/06 00:55:38;;;;;;;16.02;2.95;;;13.30;99.90;;;;;;4989536;28;20037;-58
2022/10/06 00:58:04;;;;;;;11.13;2.55;;;13.30;99.90;;;;;;4984058;28;20108;-60
2022/10/06 01:00:30;;;;;;;15.50;2.50;;;13.30;99.90;;;;;;4989173;28;20038;-60
2022/10/06 01:03:10;;;;;;;11.57;2.00;;;13.30;99.90;;;;;;4996640;28;20531;-58
2022/10/06 01:05:42;;;;;;;13.18;2.13;;;13.30;99.90;;;;;;4993745;28;20105;-58
2022/10/06 01:08:08;;;;;;;9.30;2.35;;;13.30;99.90;;;;;;4987758;28;20178;-57
2022/10/06 01:10:34;;;;;;;13.27;2.75;;;13.20;99.90;;;;;;4994438;28;20273;-59
2022/10/06 01:13:01;;;;;;;17.23;2.63;;;13.20;99.90;;;;;;4993224;28;20062;-62
2022/10/06 01:15:27;;;;;;;14.68;2.75;;;13.20;99.90;;;;;;4988150;28;20474;-60
2022/10/06 01:18:00;;;;;;;11.98;2.35;;;13.20;99.90;;;;;;4999183;28;20042;-58
2022/10/06 01:20:28;;;;;;;11.35;2.00;;;13.20;99.90;;;;;;4982605;28;20049;-59
2022/10/06 01:23:05;;;;;;;11.15;2.15;;;13.20;99.90;;;;;;5003500;28;20105;-60
2022/10/06 01:25:33;;;;;;;11.02;1.98;;;13.20;99.90;;;;;;4996228;28;20400;-59
2022/10/06 01:28:03;;;;;;;13.65;2.50;;;13.20;99.90;;;;;;4997034;28;20055;-58
2022/10/06 01:30:44;;;;;;;13.68;2.00;;;13.10;99.90;;;;;;4984314;28;20042;-59
2022/10/06 01:33:10;;;;;;;10.20;1.95;;;13.10;99.90;;;;;;4987857;28;20042;-58
2022/10/06 01:35:36;;;;;;;12.65;2.55;;;13.10;99.90;;;;;;4995330;28;20037;-59
2022/10/06 01:38:02;;;;;;;12.82;2.20;;;13.10;99.90;;;;;;5001391;28;20087;-58
2022/10/06 01:40:28;;;;;;;11.45;2.10;;;13.10;99.90;;;;;;4990255;28;20046;-58
2022/10/06 01:42:55;;;;;;;9.65;1.90;;;13.10;99.90;;;;;;4998469;28;20260;-58
2022/10/06 01:45:21;;;;;;;10.02;2.25;;;13.00;99.90;;;;;;4990232;28;20088;-58
2022/10/06 01:47:47;;;;;;;12.38;2.72;;;13.00;99.90;;;;;;5000112;28;20030;-59
2022/10/06 01:50:13;;;;;;;12.15;2.20;;;13.00;99.90;;;;;;4994537;28;20461;-60
2022/10/06 01:52:39;;;;;;;9.32;2.35;;;13.00;99.90;;;;;;4987137;28;20113;-59
2022/10/06 01:55:05;;;;;;;10.10;2.10;;;13.00;99.90;;;;;;4991005;28;20121;-60
2022/10/06 01:57:31;;;;;;;12.40;2.10;;;12.90;99.90;;;;;;4984354;28;20042;-59
2022/10/06 01:59:56;;;;;;;17.05;2.25;;;12.90;99.90;;;;;;4978344;28;20046;-60
2022/10/06 02:02:22;;;;;;;12.07;1.88;;;12.90;99.90;;;;;;4990910;28;20635;-60
2022/10/06 02:04:48;;;;;;;12.35;1.73;;;12.90;99.90;;;;;;4995851;28;20038;-59
2022/10/06 02:07:14;;;;;;;9.13;1.88;;;12.90;99.90;;;;;;4983501;28;20443;-58
2022/10/06 02:09:40;;;;;;;13.30;2.28;;;12.90;99.90;;;;;;4982892;28;20382;-59
2022/10/06 02:12:06;;;;;;;14.00;2.55;;;12.80;99.90;;;;;;4978092;28;21837;-58
2022/10/06 02:14:33;;;;;;;12.02;2.38;;;12.80;99.90;;;;;;4986842;28;20033;-59
2022/10/06 02:16:59;;;;;;;16.33;2.75;;;12.80;99.90;;;;;;4980517;28;20053;-60
2022/10/06 02:19:25;;;;;;;13.02;2.20;;;12.80;99.90;;;;;;4981063;28;20429;-60
2022/10/06 02:21:51;;;;;;;11.05;2.17;;;12.80;99.90;;;;;;4993274;28;20708;-60
2022/10/06 02:24:16;;;;;;;9.98;2.45;;;12.80;99.90;;;;;;4979209;28;20104;-60
2022/10/06 02:26:42;;;;;;;12.38;2.30;;;12.80;99.90;;;;;;4981642;28;20053;-59
2022/10/06 02:29:08;;;;;;;9.75;1.75;;;12.90;99.90;;;;;;4980159;28;20107;-59
2022/10/06 02:31:34;;;;;;;10.32;2.42;;;12.90;99.90;;;;;;4979521;28;20062;-59
2022/10/06 02:33:59;;;;;;;12.55;2.70;;;12.90;99.90;;;;;;4980372;28;20418;-59
2022/10/06 02:36:25;;;;;;;8.15;1.80;;;12.90;99.90;;;;;;4987965;28;20030;-58
2022/10/06 02:38:51;;;;;;;12.48;2.28;;;12.90;99.90;;;;;;4983844;28;20129;-59
2022/10/06 02:41:16;;;;;;;11.52;1.83;;;12.90;99.90;;;;;;4996732;28;20260;-60
2022/10/06 02:43:42;;;;;;;13.65;2.40;;;12.90;99.90;;;;;;4985095;28;20228;-59
2022/10/06 02:46:11;;;;;;;9.38;2.30;;;12.90;99.90;;;;;;4978926;28;20217;-59
2022/10/06 02:48:37;;;;;;;17.10;2.90;;;12.90;99.90;;;;;;4973231;28;20437;-60
2022/10/06 02:51:06;;;;;;;16.08;2.60;;;12.90;99.90;;;;;;4970067;28;20057;-59
2022/10/06 02:53:33;;;;;;;10.30;2.20;;;12.90;99.90;;;;;;4978988;28;20128;-59
2022/10/06 02:56:11;;;;;;;8.52;2.22;;;12.90;99.90;;;;;;4973339;28;20107;-60
2022/10/06 02:58:41;;;;;;;10.32;2.47;;;12.90;99.90;;;;;;4975415;28;22695;-59
2022/10/06 03:01:17;;;;;;;10.43;2.40;;;12.90;99.90;;;;;;4978140;28;20050;-60
2022/10/06 03:03:45;;;;;;;11.43;2.20;;;12.90;99.90;;;;;;4973299;28;21401;-60
2022/10/06 03:06:22;;;;;;;10.80;2.15;;;12.90;99.90;;;;;;4986959;28;20280;-59
2022/10/06 03:08:52;;;;;;;13.02;2.40;;;12.90;99.90;;;;;;4974113;28;20061;-59
2022/10/06 03:11:19;;;;;;;9.95;2.25;;;12.90;99.90;;;;;;4967430;28;21822;-59
2022/10/06 03:13:45;;;;;;;17.35;3.55;;;13.30;99.90;;;;;;4968353;28;20683;-60
2022/10/06 03:16:17;;;;;;;14.73;2.40;;;12.80;99.90;;;;;;4975764;28;20409;-60
2022/10/06 03:18:48;;;;;;;14.73;2.60;;;12.80;99.90;;;;;;4981731;28;20038;-60
2022/10/06 03:21:15;;;;;;;14.55;3.42;;;12.80;99.90;;;;;;4982062;28;20072;-60
2022/10/06 03:23:43;;;;;;;7.70;2.00;;;12.80;99.90;;;;;;4982650;28;20042;-60
2022/10/06 03:26:09;;;;;;;11.38;2.40;;;12.80;99.90;;;;;;4996648;28;20124;-61
2022/10/06 03:28:34;;;;;;;14.38;2.50;;;12.90;99.90;;;;;;4991777;28;20042;-58
2022/10/06 03:31:02;;;;;;;10.70;2.15;;;12.80;99.90;;;;;;4987589;28;20504;-59
2022/10/06 03:33:28;;;;;;;10.52;1.90;;;12.80;99.90;;;;;;4987606;28;20125;-60
2022/10/06 03:35:58;;;;;;;12.60;2.33;;;12.80;99.90;;;;;;5000745;28;20290;-59
2022/10/06 03:38:24;;;;;;;13.80;2.38;;;12.80;99.90;;;;;;5003108;28;20052;-59
2022/10/06 03:40:50;;;;;;;12.13;2.17;;;12.80;99.90;;;;;;5015293;28;20515;-59
2022/10/06 03:43:15;;;;;;;10.45;2.67;;;12.70;99.90;;;;;;5014265;28;20129;-59
2022/10/06 03:45:41;;;;;;;14.02;2.10;;;12.70;99.90;;;;;;5009967;28;20042;-59
2022/10/06 03:48:07;;;;;;;16.73;2.90;;;12.70;99.90;;;;;;5007882;28;20659;-60
2022/10/06 03:50:32;;;;;;;8.63;2.05;;;12.70;99.90;;;;;;5000929;28;20216;-60
2022/10/06 03:52:58;;;;;;;11.43;2.10;;;12.60;99.90;;;;;;5002483;28;20112;-59
2022/10/06 03:55:24;;;;;;;11.65;2.40;;;12.60;99.90;;;;;;5002949;28;20046;-60
2022/10/06 03:57:50;;;;;;;12.80;2.63;;;12.60;99.90;;;;;;5002846;28;20048;-59
2022/10/06 04:00:15;;;;;;;12.38;2.30;;;12.60;99.90;;;;;;4984758;28;21553;-60
2022/10/06 04:02:41;;;;;;;9.48;2.10;;;12.60;99.90;;;;;;4986783;28;20545;-59
2022/10/06 04:05:07;;;;;;;12.20;2.85;;;12.50;99.90;;;;;;4972909;28;20091;-60
2022/10/06 04:07:33;;;;;;;10.15;2.10;;;12.50;99.90;;;;;;4975004;28;20465;-59
2022/10/06 04:09:59;;;;;;;11.85;1.90;;;12.50;99.90;;;;;;4978503;28;20038;-60
2022/10/06 04:12:24;;;;;;;11.10;3.05;;;12.50;99.90;;;;;;4974039;28;20045;-60
2022/10/06 04:14:50;;;;;;;12.35;2.30;;;12.50;99.90;;;;;;4976236;28;20556;-60
2022/10/06 04:17:16;;;;;;;11.85;2.22;;;12.50;99.90;;;;;;4975317;28;20116;-59
2022/10/06 04:19:41;;;;;;;10.50;2.00;;;12.50;99.90;;;;;;4977554;28;20104;-60
2022/10/06 04:22:07;;;;;;;15.43;2.63;;;12.50;99.90;;;;;;4980562;28;20048;-60
2022/10/06 04:24:33;;;;;;;14.38;2.42;;;12.50;99.90;;;;;;4972098;28;20147;-59
2022/10/06 04:27:26;;;;;;;10.00;1.90;;;12.50;99.90;;;;;;4977791;28;20637;-58
2022/10/06 04:29:44;;;;;;;10.73;2.15;;;12.50;99.90;;;;;;4982583;28;20111;-60
2022/10/06 04:32:10;;;;;;;16.73;3.42;;;12.50;99.90;;;;;;4997946;28;20037;-60
2022/10/06 04:34:36;;;;;;;12.60;2.65;;;12.50;99.90;;;;;;4974009;28;20034;-60
2022/10/06 04:37:02;;;;;;;9.20;2.35;;;12.50;99.90;;;;;;4968845;28;20053;-59
2022/10/06 04:39:28;;;;;;;12.00;2.40;;;12.50;99.90;;;;;;4995138;28;20610;-59
2022/10/06 04:41:54;;;;;;;11.32;2.33;;;12.50;99.90;;;;;;4984820;28;20045;-59
2022/10/06 04:44:19;;;;;;;11.68;2.15;;;12.50;99.90;;;;;;4976646;28;20529;-60
2022/10/06 04:46:45;;;;;;;11.82;1.85;;;12.50;99.90;;;;;;4972036;28;20057;-60
2022/10/06 04:49:11;;;;;;;12.13;2.53;;;12.50;99.90;;;;;;4977930;28;20288;-61
2022/10/06 04:51:37;;;;;;;10.75;2.25;;;12.50;99.90;;;;;;4970728;28;20041;-60
2022/10/06 04:54:03;;;;;;;10.25;2.25;;;12.50;99.90;;;;;;4979435;28;20294;-60
2022/10/06 04:56:30;;;;;;;17.45;3.60;;;12.50;99.90;;;;;;4973230;28;20062;-60
2022/10/06 04:58:57;;;;;;;14.18;2.83;;;12.50;99.90;;;;;;4976268;28;20057;-60
2022/10/06 05:01:35;;;;;;;15.32;3.33;;;12.40;99.90;;;;;;4997652;23;20057;-63
2022/10/06 05:04:02;;;;;;;15.18;2.70;;;12.40;99.90;;;;;;4988265;28;20053;-63
2022/10/06 05:06:33;;;;;;;14.32;2.83;;;12.40;99.90;;;;;;4967405;28;20314;-61
2022/10/06 05:09:02;;;;;;;17.23;3.47;;;12.40;99.90;;;;;;5003014;28;20069;-61
2022/10/06 05:11:28;;;;;;;12.50;2.20;;;12.40;99.90;;;;;;4967716;28;20064;-60
2022/10/06 05:13:55;;;;;;;17.95;2.95;;;12.40;99.90;;;;;;4986994;28;20152;-61
2022/10/06 05:16:23;;;;;;;11.82;2.25;;;12.40;99.90;;;;;;4964523;28;20069;-61
2022/10/06 05:18:49;;;;;;;10.32;2.55;;;12.40;99.90;;;;;;4967082;28;20188;-61
2022/10/06 05:21:20;;;;;;;18.20;2.42;;;12.40;99.90;;;;;;5008811;28;20038;-62
2022/10/06 05:23:46;;;;;;;12.90;2.58;;;12.40;99.90;;;;;;5002601;28;20390;-62
2022/10/06 05:26:15;;;;;;;15.57;2.97;;;12.40;99.90;;;;;;5017160;28;20244;-62
2022/10/06 05:28:41;;;;;;;14.90;2.25;;;12.40;99.90;;;;;;5015741;28;20124;-62
2022/10/06 05:31:16;;;;;;;13.15;1.92;;;12.40;99.90;;;;;;4996544;28;20810;-61
2022/10/06 05:33:41;;;;;;;15.40;2.17;;;12.40;99.90;;;;;;4988125;28;20049;-60
2022/10/06 05:36:12;;;;;;;12.45;2.17;;;12.40;99.90;;;;;;5018610;28;20048;-61
2022/10/06 05:38:38;;;;;;;12.15;1.98;;;12.40;99.90;;;;;;5004532;28;20036;-60
2022/10/06 05:41:10;;;;;;;12.90;2.25;;;12.40;99.90;;;;;;5027879;28;20107;-61
2022/10/06 05:43:36;;;;;;;13.68;3.33;;;12.40;99.90;;;;;;5009123;28;20129;-62
2022/10/06 05:46:04;;;;;;;17.55;2.85;;;12.30;99.90;;;;;;5015591;28;20048;-62
2022/10/06 05:48:30;;;;;;;14.77;2.83;;;12.30;99.90;;;;;;4993798;28;20073;-62
2022/10/06 05:50:58;;;;;;;21.20;3.38;;;12.30;99.90;;;;;;5030250;28;20048;-62
2022/10/06 05:53:25;;;;;;;14.20;3.15;;;12.30;99.90;;;;;;5030728;28;20037;-62
2022/10/06 05:55:51;;;;;;;14.52;2.97;;;12.30;99.90;;;;;;4983458;28;20558;-62
2022/10/06 05:58:16;;;;;;;10.32;2.85;;;12.30;99.90;;;;;;5008580;28;20041;-62
2022/10/06 06:00:42;;;;;;;14.57;2.50;;;12.30;99.90;;;;;;5024344;28;20166;-62
2022/10/06 06:03:08;;;;;;;17.98;2.45;;;12.30;99.90;;;;;;5029148;28;20136;-61
2022/10/06 06:05:40;;;;;;;8.90;2.40;;;12.30;99.90;;;;;;5026376;28;20129;-61
2022/10/06 06:08:06;;;;;;;18.08;3.63;;;12.30;99.90;;;;;;4990185;28;20247;-63
2022/10/06 06:10:32;;;;;;;14.57;4.35;;;12.30;99.90;;;;;;4986793;28;20440;-62
2022/10/06 06:12:57;;;;;;;14.48;3.90;;;12.30;99.90;;;;;;5012610;28;20072;-61
2022/10/06 06:18:08;;;;;;;;;;;12.30;99.90;;;;;;5030173;28;20085;-63
2022/10/06 06:20:34;;;;;;;13.80;2.35;;;12.30;99.90;;;;;;5023840;28;19924;-63
2022/10/06 06:22:59;;;;;;;13.88;3.28;;;12.30;99.90;;;;;;5003813;28;20396;-62
2022/10/06 06:25:25;;;;;;;13.27;3.05;;;12.40;99.90;;;;;;5009085;28;20037;-62
2022/10/06 06:27:54;;;;;;;13.45;2.97;;;12.30;99.90;;;;;;5014549;28;20117;-63
2022/10/06 06:30:20;;;;;;;11.77;2.40;;;12.40;99.90;;;;;;4991756;28;20082;-62
2022/10/06 06:32:46;;;;;;;18.27;3.90;;;12.40;99.90;;;;;;4991564;28;20091;-61
2022/10/06 06:35:11;;;;;;;11.63;2.67;;;12.40;99.90;;;;;;5028636;28;20069;-61
2022/10/06 06:37:37;;;;;;;11.43;3.83;;;12.50;99.90;;;;;;4995477;28;20169;-61
2022/10/06 06:40:03;;;;;;;15.32;3.65;;;12.50;99.90;;;;;;4985015;28;20037;-62
2022/10/06 06:42:29;;;;;;;11.38;2.92;;;12.60;99.90;;;;;;5005389;28;20069;-62
2022/10/06 06:44:55;;;;;;;17.38;2.88;;;12.60;99.90;;;;;;5004998;28;21401;-62
2022/10/06 06:47:21;;;;;;;18.50;2.70;;;12.60;99.90;;;;;;5026621;28;20040;-61
2022/10/06 06:49:47;;;;;;;11.65;2.47;;;12.60;99.90;;;;;;5022842;28;20045;-60
2022/10/06 06:52:13;;;;;;;13.02;2.55;;;12.80;99.90;;;;;;5009320;28;20045;-61
2022/10/06 06:54:39;;;;;;;11.55;2.65;;;13.10;99.90;;;;;;5022945;28;20037;-63
2022/10/06 06:57:08;;;;;;;12.80;2.60;;;13.20;99.90;;;;;;5006453;28;20041;-61
2022/10/06 06:59:34;;;;;;;16.15;2.88;;;13.20;99.90;;;;;;5028270;28;20636;-62
2022/10/06 07:02:00;;;;;;;14.48;2.45;;;13.30;99.90;;;;;;5024938;28;20128;-60
2022/10/06 07:04:25;;;;;;;15.80;2.88;;;13.20;99.90;;;;;;4988078;28;20188;-61
2022/10/06 07:06:58;;;;;;;14.32;2.42;;;13.10;99.90;;;;;;5021360;28;20067;-61
2022/10/06 07:09:25;;;;;;;13.95;2.55;;;13.10;99.90;;;;;;4996406;28;21776;-61
2022/10/06 07:11:50;;;;;;;16.45;2.60;;;13.10;99.90;;;;;;5000458;28;20484;-61
2022/10/06 07:14:17;;;;;;;12.40;2.33;;;13.20;99.90;;;;;;4986860;28;20045;-60
2022/10/06 07:25:25;;;;;;;16.73;3.03;;;13.40;99.90;;;;;;5003027;28;20048;-62
2022/10/06 07:27:50;;;;;;;14.13;3.35;;;13.40;99.90;;;;;;5027404;28;20042;-63
2022/10/06 07:30:26;;;;;;;13.25;2.60;;;13.50;99.90;;;;;;5026634;28;20090;-61
2022/10/06 07:32:52;;;;;;;12.35;2.97;;;13.60;99.90;;;;;;5001961;28;20532;-61
2022/10/06 07:35:20;;;;;;;10.95;2.50;;;13.60;99.90;;;;;;5013249;28;20124;-62
2022/10/06 07:37:46;;;;;;;10.65;2.05;;;13.70;99.90;;;;;;5009566;28;20049;-61
2022/10/06 07:40:13;;;;;;;14.40;2.63;;;13.80;99.90;;;;;;5014092;28;20229;-61
2022/10/06 07:42:52;;;;;;;8.63;2.38;;;13.90;99.90;;;;;;5033971;28;20127;-63
2022/10/06 07:45:38;;;;;;;17.80;3.05;;;14.00;99.90;;;;;;5015032;28;20064;-61
2022/10/06 07:48:07;;;;;;;14.38;2.55;;;14.00;99.90;;;;;;5003297;28;20037;-69
2022/10/06 07:50:36;;;;;;;13.45;2.75;;;14.10;99.90;;;;;;5017648;28;20037;-62
2022/10/06 07:53:07;;;;;;;11.20;2.38;;;14.10;99.90;;;;;;5007810;28;20045;-61
2022/10/06 07:55:35;;;;;;;11.27;1.95;;;14.20;99.90;;;;;;5029739;28;20124;-61
2022/10/06 07:58:01;;;;;;;11.85;2.63;;;14.30;99.90;;;;;;5004427;28;20037;-61
2022/10/06 08:00:27;;;;;;;9.07;2.08;;;14.40;99.90;;;;;;5010477;28;20095;-62
2022/10/06 08:02:55;;;;;;;9.48;2.13;;;14.40;99.90;;;;;;5001140;28;20666;-61
2022/10/06 08:05:21;;;;;;;12.07;1.90;;;14.50;99.90;;;;;;5013596;28;20246;-61
2022/10/06 08:07:47;;;;;;;12.57;1.98;;;14.60;99.90;;;;;;5006116;28;20038;-61
2022/10/06 08:10:12;;;;;;;11.98;2.30;;;14.70;99.90;;;;;;5022688;28;20091;-61
2022/10/06 08:12:39;;;;;;;16.55;3.13;;;14.70;99.90;;;;;;5014463;28;20046;-62
2022/10/06 08:15:10;;;;;;;13.18;2.03;;;14.80;99.90;;;;;;4989038;28;20506;-61
2022/10/06 08:17:36;;;;;;;10.70;2.78;;;14.90;99.90;;;;;;5027035;28;20045;-62
2022/10/06 08:20:04;;;;;;;7.20;2.17;;;14.90;99.90;;;;;;5000725;28;20388;-61
2022/10/06 08:22:31;;;;;;;12.07;2.25;;;14.90;99.90;;;;;;5008468;28;20046;-61
2022/10/06 08:24:56;;;;;;;10.70;1.90;;;14.90;99.90;;;;;;5010839;28;20175;-61
2022/10/06 08:27:26;;;;;;;9.82;1.90;;;15.10;99.90;;;;;;5002213;28;20487;-60
2022/10/06 08:29:51;;;;;;;10.00;2.10;;;15.20;99.90;;;;;;4988178;28;20572;-62
2022/10/06 08:32:19;;;;;;;10.35;1.55;;;15.20;99.90;;;;;;4989876;28;20164;-61
2022/10/06 08:34:46;;;;;;;10.10;1.77;;;15.30;99.90;;;;;;4986934;28;20128;-62
2022/10/06 08:37:12;;;;;;;9.90;2.05;;;15.40;99.90;;;;;;4989754;28;20099;-62
2022/10/06 08:39:37;;;;;;;12.35;2.42;;;15.40;99.90;;;;;;5003664;28;20137;-62
2022/10/06 08:42:03;;;;;;;12.63;2.03;;;15.40;99.90;;;;;;5009587;28;20120;-61
2022/10/06 08:44:41;;;;;;;14.65;2.00;;;15.30;99.90;;;;;;5015847;28;20041;-62
2022/10/06 08:47:21;;;;;;;9.95;2.65;;;15.30;99.90;;;;;;5022676;28;20121;-62
2022/10/06 08:49:50;;;;;;;12.27;2.72;;;15.30;99.90;;;;;;4999537;28;20096;-63
2022/10/06 08:52:37;;;;;;;10.32;2.75;;;15.50;99.90;;;;;;5007811;28;20049;-61
2022/10/06 08:55:28;;;;;;;7.82;1.90;;;15.40;99.90;;;;;;5023550;28;20061;-62
2022/10/06 08:58:30;;;;;;;9.73;2.08;;;15.60;99.90;;;;;;5023095;28;20037;-62
2022/10/06 09:01:11;;;;;;;9.60;1.95;;;15.40;99.90;;;;;;5007714;28;20510;-61
2022/10/06 09:03:37;;;;;;;9.23;2.20;;;15.50;99.90;;;;;;5000312;28;20444;-62
2022/10/06 09:06:13;;;;;;;12.35;2.35;;;15.50;99.90;;;;;;5018356;28;21410;-62
2022/10/06 09:08:57;;;;;;;9.68;2.08;;;15.60;99.90;;;;;;5023359;28;20042;-62
2022/10/06 09:11:22;;;;;;;;;;;15.80;99.90;;;;;;5016618;28;20052;-63
2022/10/06 09:14:29;;;;;;;9.20;1.90;;;15.90;99.90;;;;;;5023902;28;19925;-61
2022/10/06 09:17:00;;;;;;;12.82;1.77;;;16.00;99.90;;;;;;5001661;28;20173;-63
2022/10/06 09:19:34;;;;;;;9.57;2.00;;;16.00;99.90;;;;;;5017030;28;20033;-61
2022/10/06 09:22:03;;;;;;;13.57;2.20;;;15.90;99.90;;;;;;5016608;28;20045;-63
2022/10/06 09:24:35;;;;;;;11.40;2.17;;;15.80;99.90;;;;;;5017312;28;20184;-63
2022/10/06 09:27:22;;;;;;;6.85;1.75;;;15.60;99.90;;;;;;4996048;28;20045;-63
2022/10/06 09:29:49;;;;;;;12.75;2.83;;;15.80;99.90;;;;;;5024010;28;20120;-61
2022/10/06 09:32:17;;;;;;;9.57;2.30;;;15.80;99.90;;;;;;5020388;28;20138;-61
2022/10/06 09:34:54;;;;;;;10.45;1.67;;;16.00;99.90;;;;;;5004255;28;20041;-60
2022/10/06 09:37:19;;;;;;;9.50;1.88;;;16.10;99.90;;;;;;5017249;28;20392;-62
2022/10/06 09:39:49;;;;;;;11.20;2.47;;;16.30;99.90;;;;;;5014164;28;20029;-61
2022/10/06 09:42:25;;;;;;;10.32;2.20;;;16.50;99.90;;;;;;5017254;28;20084;-62
2022/10/06 09:45:00;;;;;;;9.77;1.88;;;16.50;99.90;;;;;;5021289;28;20061;-60
2022/10/06 09:47:33;;;;;;;9.43;1.73;;;16.50;99.90;;;;;;4978981;28;20041;-60
2022/10/06 09:50:10;;;;;;;12.03;2.40;;;16.50;99.90;;;;;;5021853;28;20042;-62
2022/10/06 09:52:37;;;;;;;9.13;2.83;;;16.30;99.90;;;;;;5018012;28;20048;-62
2022/10/06 09:55:14;;;;;;;10.98;2.55;;;16.40;99.90;;;;;;4982210;28;20117;-62
2022/10/06 09:57:55;;;;;;;14.25;2.42;;;16.20;99.90;;;;;;5004534;28;20553;-61
2022/10/06 10:00:30;;;;;;;11.15;2.15;;;16.10;99.90;;;;;;5020374;28;20081;-62
2022/10/06 10:03:08;;;;;;;6.40;1.67;;;16.00;99.90;;;;;;5001885;28;20514;-61
2022/10/06 10:05:36;;;;;;;12.65;2.65;;;16.00;99.90;;;;;;4997302;28;20057;-63
2022/10/06 10:08:26;;;;;;;12.63;2.38;;;15.90;99.90;;;;;;5013707;28;20091;-62
2022/10/06 10:12:23;;;;;;;10.15;2.42;;;15.90;99.90;;;;;;5027647;28;20044;-63
2022/10/06 10:13:54;;;;;;;10.02;1.70;;;15.90;99.70;;;;;;5005298;28;20037;-61
2022/10/06 10:16:29;;;;;;;7.78;1.73;;;16.10;99.90;;;;;;5026481;28;20499;-61
2022/10/06 10:18:55;;;;;;;7.90;1.80;;;16.30;99.90;;;;;;5020548;28;20041;-61
2022/10/06 10:21:28;;;;;;;8.30;1.40;;;16.50;99.50;;;;;;5023159;28;20037;-62
2022/10/06 10:23:59;;;;;;;8.10;2.10;;;16.60;98.90;;;;;;5024874;28;20041;-62
2022/10/06 10:27:08;;;;;;;12.32;1.75;;;16.70;98.60;;;;;;5006876;28;20586;-62
2022/10/06 10:30:00;;;;;;;8.07;1.70;;;16.70;98.00;;;;;;5017791;28;20669;-62
2022/10/06 10:32:45;;;;;;;11.18;2.08;;;16.90;98.70;;;;;;4989723;28;20046;-62
2022/10/06 10:35:23;;;;;;;11.68;2.10;;;17.10;98.90;;;;;;4988816;28;20129;-62
2022/10/06 10:37:55;;;;;;;10.38;1.48;;;17.00;98.40;;;;;;5006055;28;20503;-61
2022/10/06 10:40:46;;;;;;;8.55;1.60;;;17.20;98.60;;;;;;5007824;28;20519;-62
2022/10/06 10:43:21;;;;;;;9.00;1.83;;;17.40;98.60;;;;;;5003363;28;20037;-61
2022/10/06 10:45:57;;;;;;;8.77;2.03;;;17.50;97.10;;;;;;5008584;28;20050;-60
2022/10/06 10:48:29;;;;;;;6.45;1.50;;;17.50;96.90;;;;;;5019981;28;20046;-63
2022/10/06 10:51:02;;;;;;;8.90;2.08;;;17.30;95.90;;;;;;5000853;28;20128;-61
2022/10/06 10:53:39;;;;;;;13.23;2.10;;;17.50;97.20;;;;;;5021307;28;20504;-63
2022/10/06 10:56:09;;;;;;;9.88;2.30;;;17.50;96.90;;;;;;5013674;28;20522;-64
2022/10/06 10:58:39;;;;;;;8.57;1.77;;;17.70;97.20;;;;;;5021453;28;20041;-62
2022/10/06 11:01:31;;;;;;;9.23;1.90;;;17.60;96.70;;;;;;5057681;23;20017;-84
2022/10/06 11:04:11;;;;;;;9.52;2.33;;;17.50;95.90;;;;;;4991956;28;20621;-84
2022/10/06 11:06:53;;;;;;;11.05;1.98;;;17.40;96.20;;;;;;5014945;28;20067;-84
2022/10/06 11:09:24;;;;;;;7.68;1.48;;;17.50;95.90;;;;;;5007556;28;20073;-84
2022/10/06 11:12:24;;;;;;;9.82;1.70;;;17.70;96.60;;;;;;4998083;28;20033;-84
2022/10/06 11:15:25;;;;;;;5.55;1.90;;;17.70;96.30;;;;;;5029032;28;20034;-85
2022/10/06 11:17:59;;;;;;;9.27;1.58;;;17.50;96.30;;;;;;4995364;28;20041;-85
2022/10/06 11:20:41;;;;;;;6.90;1.42;;;17.60;96.30;;;;;;5009037;28;20389;-83
2022/10/06 11:23:32;;;;;;;7.00;1.80;;;17.80;96.60;;;;;;5009388;28;20494;-84
2022/10/06 11:26:18;;;;;;;10.63;1.88;;;17.90;95.90;;;;;;4996472;28;20104;-84
2022/10/06 11:29:17;;;;;;;8.90;2.38;;;18.00;96.00;;;;;;5022658;28;20029;-83
2022/10/06 11:31:43;;;;;;;8.20;1.55;;;18.10;95.80;;;;;;5022570;28;20092;-83
2022/10/06 11:34:15;;;;;;;7.80;1.40;;;18.10;95.70;;;;;;4998168;28;20072;-83
2022/10/06 11:36:57;;;;;;;7.13;1.20;;;17.80;95.50;;;;;;4990366;28;20129;-85
2022/10/06 11:39:51;;;;;;;9.65;1.80;;;17.70;95.10;;;;;;4992943;28;20505;-86
2022/10/06 11:42:17;;;;;;;11.77;1.77;;;17.70;95.40;;;;;;5010650;28;20191;-84
2022/10/06 11:44:47;;;;;;;19.00;3.08;;;17.80;95.40;;;;;;5009747;28;20505;-86
2022/10/06 11:47:58;;;;;;;8.30;1.83;;;17.70;95.00;;;;;;5009371;28;20045;-84
2022/10/06 11:50:37;;;;;;;8.93;1.65;;;17.90;95.30;;;;;;4978623;28;20477;-84
2022/10/06 11:53:25;;;;;;;9.18;1.40;;;18.20;95.30;;;;;;5012355;28;20156;-84
2022/10/06 11:56:33;;;;;;;6.47;1.40;;;18.20;95.50;;;;;;5001255;28;20045;-84
2022/10/06 11:59:53;;;;;;;;;;;;;;;;;;;;;
2022/10/06 12:02:38;;;;;;;8.65;1.75;;;18.20;94.00;;;;;;4939707;28;20066;-83
2022/10/06 12:05:15;;;;;;;6.45;1.60;;;18.10;94.30;;;;;;4958063;28;20452;-83
2022/10/06 12:07:58;;;;;;;9.30;1.40;;;18.20;94.30;;;;;;4988705;28;20046;-83
2022/10/06 12:10:27;;;;;;;6.43;1.80;;;18.30;94.30;;;;;;4987021;28;20042;-84
2022/10/06 12:13:18;;;;;;;7.75;1.48;;;18.30;94.60;;;;;;4990015;28;20088;-84
2022/10/06 12:16:05;;;;;;;4.90;1.60;;;18.40;94.50;;;;;;5019530;28;20063;-84
2022/10/06 12:18:46;;;;;;;6.28;1.52;;;18.60;94.30;;;;;;4984495;28;20037;-84
2022/10/06 12:21:31;;;;;;;7.05;1.75;;;18.60;94.30;;;;;;5004226;28;20409;-84
2022/10/06 12:24:24;;;;;;;6.88;1.55;;;18.50;94.10;;;;;;4987855;28;20045;-83
2022/10/06 12:27:16;;;;;;;7.68;1.63;;;18.50;93.30;;;;;;5005728;28;20041;-85
2022/10/06 12:29:56;;;;;;;8.80;1.65;;;18.80;93.60;;;;;;4989481;28;20045;-83
2022/10/06 12:32:51;;;;;;;5.55;1.45;;;18.80;93.90;;;;;;5000612;28;20045;-87
2022/10/06 12:35:26;;;;;;;5.18;1.45;;;18.70;93.80;;;;;;5010080;28;20045;-85
2022/10/06 12:37:59;;;;;;;7.07;1.60;;;18.70;93.40;;;;;;5008165;28;20060;-84
2022/10/06 12:40:46;;;;;;;7.30;1.83;;;18.90;93.60;;;;;;5007897;28;20045;-81
2022/10/06 12:43:17;;;;;;;6.03;1.13;;;18.70;93.90;;;;;;5010849;28;20034;-84
2022/10/06 12:46:23;;;;;;;5.18;1.27;;;18.20;92.60;;;;;;4992921;28;20038;-86
2022/10/06 12:48:53;;;;;;;10.50;1.40;;;18.40;93.50;;;;;;4968325;28;20458;-85
2022/10/06 12:51:40;;;;;;;9.02;2.35;;;18.40;94.10;;;;;;4992647;28;20037;-83
2022/10/06 12:54:32;;;;;;;8.25;1.75;;;18.30;93.90;;;;;;4990329;28;20120;-84
2022/10/06 12:57:00;;;;;;;9.88;1.85;;;18.10;94.00;;;;;;5013292;28;20410;-82
2022/10/06 12:59:37;;;;;;;5.57;1.58;;;18.00;94.10;;;;;;4992203;28;20042;-85
2022/10/06 13:02:17;;;;;;;6.68;1.63;;;18.10;94.00;;;;;;5009873;28;20060;-84
2022/10/06 13:05:01;;;;;;;6.28;1.42;;;18.10;93.00;;;;;;5011724;28;20037;-85
2022/10/06 13:07:32;;;;;;;14.52;2.47;;;18.20;93.50;;;;;;5007221;28;20052;-82
2022/10/06 13:10:13;;;;;;;10.45;2.10;;;18.30;94.30;;;;;;4983662;28;20354;-85
2022/10/06 13:12:47;;;;;;;6.10;1.73;;;18.50;93.30;;;;;;4988150;28;20038;-87
2022/10/06 13:15:40;;;;;;;10.25;2.17;;;18.60;93.70;;;;;;4980522;28;20038;-83